Time;durP1;ratioP1;P1;durP2;ratioP2;P2;SDS_P1;SDS_P2;PMS_P1;PMS_P2;Temp;Humidity;BMP_temperature;BMP_pressure;BME280_temperature;BME280_humidity;BME280_pressure;Samples;Min_cycle;Max_cycle;Signal;HPM_P1;HPM_P2
2024/01/05 00:00:35;;;;;;;15.10;7.27;;;;;;;-2.77;94.53;98911.38;4253616;28;20614;-70
2024/01/05 00:03:02;;;;;;;14.83;6.90;;;;;;;-2.81;94.59;98910.72;4259328;28;21125;-69
2024/01/05 00:05:28;;;;;;;16.73;7.07;;;;;;;-2.88;95.45;98909.44;4259282;28;20225;-69
2024/01/05 00:07:55;;;;;;;12.23;5.93;;;;;;;-2.76;94.99;98915.72;4252969;28;22793;-67
2024/01/05 00:10:21;;;;;;;12.70;5.17;;;;;;;-2.89;95.48;98926.25;4256138;28;20649;-69
2024/01/05 00:12:48;;;;;;;15.83;5.90;;;;;;;-2.92;96.22;98932.63;4257523;28;21736;-68
2024/01/05 00:15:14;;;;;;;12.90;5.60;;;;;;;-2.77;95.06;98948.44;4266829;28;20774;-69
2024/01/05 00:17:41;;;;;;;10.47;5.10;;;;;;;-2.89;94.88;98948.28;4258302;28;21564;-69
2024/01/05 00:20:08;;;;;;;9.83;4.70;;;;;;;-2.91;94.87;98951.97;4254310;28;20263;-70
2024/01/05 00:22:35;;;;;;;9.20;4.23;;;;;;;-2.91;94.75;98965.22;4267208;28;20240;-68
2024/01/05 00:25:03;;;;;;;9.93;4.43;;;;;;;-2.91;94.10;98955.47;4258187;28;21325;-68
2024/01/05 00:27:30;;;;;;;11.03;4.50;;;;;;;-2.85;93.45;98962.19;4249489;28;20323;-69
2024/01/05 00:29:56;;;;;;;7.80;3.47;;;;;;;-2.91;92.48;98974.00;4262616;28;20274;-69
2024/01/05 00:32:23;;;;;;;8.83;3.60;;;;;;;-2.96;92.20;98970.81;4252557;28;20865;-68
2024/01/05 00:34:49;;;;;;;10.63;3.27;;;;;;;-2.98;92.48;98985.09;4258748;28;20604;-69
2024/01/05 00:37:16;;;;;;;9.50;4.00;;;;;;;-2.89;91.96;98990.66;4250200;28;22954;-69
2024/01/05 00:39:43;;;;;;;9.00;4.40;;;;;;;-2.85;91.88;98987.81;4254169;28;20243;-68
2024/01/05 00:42:10;;;;;;;8.50;4.17;;;;;;;-2.92;92.96;98997.94;4258177;28;22248;-69
2024/01/05 00:44:36;;;;;;;8.77;3.67;;;;;;;-2.90;93.16;99004.00;4261685;28;24998;-69
2024/01/05 00:47:03;;;;;;;8.83;4.53;;;;;;;-2.83;93.57;99005.31;4245443;28;23260;-69
2024/01/05 00:49:29;;;;;;;13.80;5.73;;;;;;;-2.61;92.83;99010.09;4254875;28;20603;-67
2024/01/05 00:51:56;;;;;;;54.60;17.67;;;;;;;-2.80;94.73;99012.19;4265189;28;20288;-69
2024/01/05 00:54:25;;;;;;;25.10;10.10;;;;;;;-2.93;94.52;99020.94;4229052;28;20229;-69
2024/01/05 00:56:51;;;;;;;16.33;6.93;;;;;;;-2.92;94.98;99021.78;4248687;28;20335;-70
2024/01/05 00:59:20;;;;;;;23.07;9.03;;;;;;;-2.92;96.01;99016.47;4270424;28;20292;-70
2024/01/05 01:01:47;;;;;;;10.80;5.00;;;;;;;-3.06;96.32;99020.84;4252868;28;20237;-69
2024/01/05 01:04:14;;;;;;;8.57;3.93;;;;;;;-2.95;96.86;99020.16;4255634;28;23277;-68
2024/01/05 01:06:41;;;;;;;15.53;5.30;;;;;;;-2.84;96.37;99031.91;4251128;28;20235;-69
2024/01/05 01:09:09;;;;;;;12.63;6.10;;;;;;;-2.90;97.34;99031.31;4254215;28;21498;-69
2024/01/05 01:11:35;;;;;;;9.30;4.87;;;;;;;-2.77;97.33;99041.16;4251659;28;23331;-69
2024/01/05 01:14:02;;;;;;;11.47;5.07;;;;;;;-2.93;98.46;99034.19;4256877;28;20257;-69
2024/01/05 01:16:29;;;;;;;8.07;4.87;;;;;;;-2.85;98.19;99043.44;4245746;28;20282;-70
2024/01/05 01:18:55;;;;;;;8.43;3.90;;;;;;;-2.73;96.86;99048.81;4257127;28;23274;-68
2024/01/05 01:21:22;;;;;;;9.67;4.57;;;;;;;-2.66;95.76;99040.47;4253525;28;20300;-69
2024/01/05 01:23:50;;;;;;;8.37;4.50;;;;;;;-2.82;95.95;99040.56;4259688;28;20304;-69
2024/01/05 01:26:16;;;;;;;8.90;4.00;;;;;;;-2.89;96.64;99046.25;4254682;28;20229;-70
2024/01/05 01:28:43;;;;;;;7.50;4.10;;;;;;;-2.91;97.58;99049.97;4261909;28;21354;-71
2024/01/05 01:31:09;;;;;;;8.57;3.97;;;;;;;-3.02;98.71;99047.97;4255976;28;20279;-70
2024/01/05 01:33:36;;;;;;;9.93;4.27;;;;;;;-2.97;97.26;99050.34;4254373;28;20480;-69
2024/01/05 01:36:03;;;;;;;9.30;3.80;;;;;;;-2.88;95.12;99047.13;4245020;28;20229;-69
2024/01/05 01:38:30;;;;;;;8.93;4.50;;;;;;;-2.88;94.12;99052.44;4256750;28;22398;-68
2024/01/05 01:40:56;;;;;;;5.37;3.03;;;;;;;-2.87;93.93;99062.06;4250259;28;20235;-69
2024/01/05 01:43:25;;;;;;;7.27;3.70;;;;;;;-2.88;93.92;99070.97;4248032;28;20234;-68
2024/01/05 01:45:55;;;;;;;7.20;3.73;;;;;;;-2.77;93.44;99076.41;4257526;28;20233;-68
2024/01/05 01:48:22;;;;;;;6.47;3.40;;;;;;;-2.67;93.20;99078.50;4252028;28;21155;-69
2024/01/05 01:50:50;;;;;;;7.57;3.40;;;;;;;-2.71;92.45;99081.31;4260295;28;20430;-69
2024/01/05 01:53:19;;;;;;;7.20;3.40;;;;;;;-2.53;92.28;99075.81;4253168;28;22337;-70
2024/01/05 01:55:48;;;;;;;7.50;3.27;;;;;;;-2.74;92.82;99076.25;4253368;28;20248;-69
2024/01/05 01:58:16;;;;;;;7.77;3.47;;;;;;;-2.57;93.25;99074.34;4251841;28;20249;-70
2024/01/05 02:00:44;;;;;;;7.00;3.67;;;;;;;-2.55;91.81;99064.47;4258215;28;20225;-68
2024/01/05 02:03:13;;;;;;;19.83;9.00;;;;;;;-2.70;92.33;99074.25;4260689;28;22438;-70
2024/01/05 02:05:41;;;;;;;8.40;4.63;;;;;;;-2.58;91.41;99067.31;4265233;28;20227;-70
2024/01/05 02:08:08;;;;;;;8.20;3.97;;;;;;;-2.59;91.36;99071.75;4262235;28;22166;-68
2024/01/05 02:10:34;;;;;;;7.20;3.47;;;;;;;-2.58;92.00;99078.75;4265198;28;21623;-69
2024/01/05 02:13:01;;;;;;;7.83;3.20;;;;;;;-2.66;91.48;99080.22;4248492;28;20233;-70
2024/01/05 02:15:27;;;;;;;7.17;3.27;;;;;;;-2.51;90.57;99075.72;4262507;28;21208;-68
2024/01/05 02:17:54;;;;;;;9.47;3.60;;;;;;;-2.46;90.54;99086.88;4262451;28;20238;-69
2024/01/05 02:20:21;;;;;;;4.73;3.00;;;;;;;-2.71;90.29;99088.44;4262224;28;20228;-68
2024/01/05 02:22:56;;;;;;;13.00;5.63;;;;;;;-2.67;90.74;99089.94;4270653;28;20758;-71
2024/01/05 02:25:22;;;;;;;20.00;8.43;;;;;;;-2.63;87.79;99101.19;4261368;28;20236;-68
2024/01/05 02:27:49;;;;;;;7.43;3.63;;;;;;;-2.75;85.98;99094.84;4259928;28;20225;-70
2024/01/05 02:30:19;;;;;;;8.40;3.43;;;;;;;-2.66;86.21;99102.22;4254639;28;20229;-69
2024/01/05 02:32:46;;;;;;;4.97;2.50;;;;;;;-2.55;84.10;99101.56;4250040;28;21708;-68
2024/01/05 02:35:12;;;;;;;5.57;2.43;;;;;;;-2.63;83.68;99107.34;4259187;28;20233;-70
2024/01/05 02:37:43;;;;;;;6.70;2.73;;;;;;;-2.53;82.91;99114.72;4257087;28;20221;-69
2024/01/05 02:40:11;;;;;;;4.03;1.90;;;;;;;-2.70;83.78;99124.56;4256360;28;20494;-68
2024/01/05 02:42:38;;;;;;;6.67;2.53;;;;;;;-2.59;83.30;99122.09;4249079;28;20239;-68
2024/01/05 02:45:05;;;;;;;4.90;2.50;;;;;;;-2.56;82.16;99121.03;4271822;28;20255;-69
2024/01/05 02:47:32;;;;;;;4.17;2.00;;;;;;;-2.58;81.92;99112.38;4255948;28;22888;-67
2024/01/05 02:49:59;;;;;;;8.73;2.47;;;;;;;-2.46;81.04;99121.34;4267305;28;20225;-68
2024/01/05 02:52:25;;;;;;;3.87;1.83;;;;;;;-2.50;81.00;99133.06;4255147;28;20399;-69
2024/01/05 02:54:52;;;;;;;5.07;2.00;;;;;;;-2.51;81.02;99126.06;4254268;28;20285;-71
2024/01/05 02:57:18;;;;;;;6.00;2.47;;;;;;;-2.47;80.19;99133.72;4240531;28;20234;-68
2024/01/05 02:59:45;;;;;;;4.30;2.07;;;;;;;-2.40;79.57;99129.72;4261935;28;20712;-68
2024/01/05 03:02:12;;;;;;;6.37;2.63;;;;;;;-2.60;81.75;99138.94;4253661;28;20229;-69
2024/01/05 03:04:43;;;;;;;5.23;2.00;;;;;;;-2.89;82.32;99141.59;4259770;28;20238;-69
2024/01/05 03:07:10;;;;;;;5.43;2.37;;;;;;;-2.85;81.63;99138.78;4266341;28;20229;-70
2024/01/05 03:09:36;;;;;;;5.20;2.20;;;;;;;-2.84;81.84;99154.56;4258769;28;20240;-68
2024/01/05 03:12:03;;;;;;;4.07;1.80;;;;;;;-2.90;82.21;99150.47;4254006;28;20422;-70
2024/01/05 03:14:30;;;;;;;5.30;1.87;;;;;;;-2.97;81.26;99149.16;4261591;28;20232;-68
2024/01/05 03:16:56;;;;;;;4.47;1.70;;;;;;;-3.01;81.55;99152.94;4258464;28;20230;-68
2024/01/05 03:19:23;;;;;;;4.00;1.90;;;;;;;-2.93;81.52;99153.34;4257670;28;20237;-70
2024/01/05 03:21:50;;;;;;;11.33;4.20;;;;;;;-2.84;80.84;99157.19;4259465;28;20228;-70
2024/01/05 03:24:16;;;;;;;21.93;8.27;;;;;;;-2.92;80.47;99162.97;4274474;28;22167;-69
2024/01/05 03:26:43;;;;;;;29.47;11.57;;;;;;;-2.85;80.45;99163.44;4254563;28;20348;-69
2024/01/05 03:29:10;;;;;;;29.07;12.43;;;;;;;-2.90;81.29;99169.00;4251493;28;20233;-69
2024/01/05 03:31:37;;;;;;;10.73;4.60;;;;;;;-2.80;80.15;99173.75;4255813;28;20246;-68
2024/01/05 03:34:04;;;;;;;12.40;6.80;;;;;;;-2.88;79.03;99180.38;4254869;28;25610;-68
2024/01/05 03:36:30;;;;;;;12.40;6.40;;;;;;;-2.72;78.91;99182.09;4261260;28;20288;-67
2024/01/05 03:38:57;;;;;;;6.17;3.77;;;;;;;-2.82;77.07;99186.22;4254061;28;21592;-68
2024/01/05 03:41:24;;;;;;;4.13;1.90;;;;;;;-2.78;75.83;99195.72;4266934;28;21594;-69
2024/01/05 03:43:50;;;;;;;5.73;2.20;;;;;;;-2.71;76.02;99189.94;4261993;28;20282;-69
2024/01/05 03:46:17;;;;;;;3.47;1.50;;;;;;;-2.74;73.63;99194.56;4267618;28;20236;-69
2024/01/05 03:48:43;;;;;;;3.53;1.20;;;;;;;-2.84;73.22;99196.94;4254905;28;21676;-68
2024/01/05 03:51:10;;;;;;;1.30;0.83;;;;;;;-2.78;73.53;99193.06;4251842;28;20389;-69
2024/01/05 03:53:37;;;;;;;1.57;0.90;;;;;;;-2.60;72.13;99199.03;4243573;28;20245;-69
2024/01/05 03:56:04;;;;;;;2.53;1.10;;;;;;;-2.62;71.79;99204.44;4263051;28;20234;-70
2024/01/05 03:58:30;;;;;;;1.97;1.00;;;;;;;-2.56;72.88;99200.53;4254726;28;20361;-69
2024/01/05 04:00:57;;;;;;;4.63;1.30;;;;;;;-2.53;72.65;99204.81;4249955;28;21452;-70
2024/01/05 04:03:23;;;;;;;4.80;1.93;;;;;;;-2.50;72.64;99207.25;4261372;28;20230;-70
2024/01/05 04:05:50;;;;;;;1.30;0.90;;;;;;;-2.73;72.58;99209.53;4256967;28;21658;-71
2024/01/05 04:08:17;;;;;;;1.53;0.93;;;;;;;-2.73;73.16;99222.75;4255096;28;20237;-69
2024/01/05 04:10:43;;;;;;;2.20;1.30;;;;;;;-2.77;73.24;99211.50;4255819;28;20374;-68
2024/01/05 04:13:10;;;;;;;2.33;1.00;;;;;;;-2.75;74.14;99220.22;4263116;28;22800;-68
2024/01/05 04:15:37;;;;;;;5.70;1.70;;;;;;;-2.87;74.56;99235.03;4255705;28;20233;-69
2024/01/05 04:18:05;;;;;;;3.10;1.40;;;;;;;-2.75;74.52;99236.09;4256230;28;21921;-69
2024/01/05 04:20:32;;;;;;;4.03;1.03;;;;;;;-2.82;74.71;99237.44;4261594;28;20363;-68
2024/01/05 04:23:00;;;;;;;1.83;1.00;;;;;;;-2.97;75.83;99239.19;4266773;28;21655;-69
2024/01/05 04:25:26;;;;;;;2.17;1.10;;;;;;;-2.96;76.94;99251.47;4251651;28;20229;-70
2024/01/05 04:27:53;;;;;;;3.53;1.40;;;;;;;-2.84;76.20;99249.06;4253421;28;21101;-69
2024/01/05 04:30:21;;;;;;;2.53;1.10;;;;;;;-3.08;77.25;99254.84;4260002;28;20301;-70
2024/01/05 04:32:49;;;;;;;4.17;1.37;;;;;;;-3.01;77.87;99258.84;4258226;28;22129;-70
2024/01/05 04:35:16;;;;;;;3.60;1.40;;;;;;;-3.09;78.09;99258.44;4255361;28;21792;-69
2024/01/05 04:37:42;;;;;;;1.67;1.07;;;;;;;-2.91;77.73;99261.81;4241782;28;20272;-70
2024/01/05 04:40:10;;;;;;;0.10;0.10;;;;;;;-3.09;77.97;99256.63;4260401;28;20283;-70
2024/01/05 04:42:37;;;;;;;2.93;1.50;;;;;;;-3.20;79.91;99262.56;4277230;28;20547;-70
2024/01/05 04:45:04;;;;;;;4.07;1.60;;;;;;;-3.04;80.18;99269.59;4274978;28;20225;-70
2024/01/05 04:47:31;;;;;;;2.83;1.30;;;;;;;-3.06;79.84;99268.88;4250881;28;21765;-70
2024/01/05 04:49:58;;;;;;;3.00;1.37;;;;;;;-3.13;80.14;99271.00;4258195;28;22174;-71
2024/01/05 04:52:25;;;;;;;2.70;1.53;;;;;;;-3.16;80.95;99272.97;4260955;28;20245;-69
2024/01/05 04:54:51;;;;;;;4.23;1.50;;;;;;;-3.27;82.26;99265.66;4251224;28;20229;-69
2024/01/05 04:57:17;;;;;;;4.17;1.37;;;;;;;-3.21;81.72;99271.44;4251477;28;22182;-70
2024/01/05 04:59:44;;;;;;;3.43;1.60;;;;;;;-3.12;80.70;99263.91;4258167;28;20255;-69
2024/01/05 05:02:11;;;;;;;2.57;1.40;;;;;;;-3.13;80.35;99256.91;4264856;28;20891;-68
2024/01/05 05:04:37;;;;;;;3.57;1.40;;;;;;;-3.22;81.79;99272.41;4249639;28;20225;-69
2024/01/05 05:07:04;;;;;;;2.67;1.27;;;;;;;-3.05;81.09;99266.13;4260905;28;25580;-70
2024/01/05 05:09:30;;;;;;;4.53;1.60;;;;;;;-2.99;81.09;99277.28;4258601;28;20240;-69
2024/01/05 05:11:57;;;;;;;4.70;1.50;;;;;;;-3.12;81.52;99285.09;4243541;28;20243;-69
2024/01/05 05:14:23;;;;;;;4.07;1.40;;;;;;;-3.11;81.45;99292.09;4250967;28;20353;-69
2024/01/05 05:16:50;;;;;;;4.80;1.50;;;;;;;-3.14;81.59;99287.00;4254179;28;20229;-69
2024/01/05 05:19:16;;;;;;;3.00;1.23;;;;;;;-3.13;81.34;99289.53;4255006;28;20233;-70
2024/01/05 05:21:43;;;;;;;2.67;1.10;;;;;;;-3.14;82.58;99285.19;4255994;28;20229;-70
2024/01/05 05:24:11;;;;;;;3.27;1.20;;;;;;;-2.94;82.09;99299.91;4257558;28;20236;-69
2024/01/05 05:26:38;;;;;;;2.10;1.20;;;;;;;-3.02;82.20;99295.03;4261589;28;20233;-68
2024/01/05 05:29:04;;;;;;;1.83;1.10;;;;;;;-2.89;82.40;99300.47;4262920;28;20297;-69
2024/01/05 05:31:31;;;;;;;2.43;1.30;;;;;;;-2.89;81.57;99308.44;4261448;28;21882;-71
2024/01/05 05:33:57;;;;;;;5.13;1.33;;;;;;;-2.89;81.24;99304.94;4260989;28;22777;-69
2024/01/05 05:36:24;;;;;;;3.20;1.43;;;;;;;-2.88;82.12;99312.78;4260126;28;20238;-70
2024/01/05 05:38:51;;;;;;;5.10;1.80;;;;;;;-2.92;83.06;99313.91;4262221;28;20328;-69
2024/01/05 05:41:17;;;;;;;2.43;1.23;;;;;;;-2.91;80.85;99314.75;4278105;28;20243;-68
2024/01/05 05:43:45;;;;;;;3.70;1.53;;;;;;;-2.93;81.22;99314.00;4248918;28;20239;-69
2024/01/05 05:46:12;;;;;;;3.93;1.20;;;;;;;-2.88;81.03;99312.78;4267311;28;20291;-68
2024/01/05 05:48:38;;;;;;;3.70;1.23;;;;;;;-2.92;82.15;99313.91;4258673;28;20234;-71
2024/01/05 05:51:06;;;;;;;3.67;1.23;;;;;;;-2.87;80.98;99311.84;4262004;28;20288;-73
2024/01/05 05:53:33;;;;;;;2.43;1.30;;;;;;;-2.76;80.79;99319.16;4253949;28;20232;-71
2024/01/05 05:55:59;;;;;;;2.80;1.50;;;;;;;-2.69;78.95;99319.66;4263773;28;20233;-70
2024/01/05 05:58:26;;;;;;;8.23;1.63;;;;;;;-2.88;78.21;99333.97;4265714;28;20237;-74
2024/01/05 06:00:53;;;;;;;5.13;1.43;;;;;;;-2.75;78.59;99339.41;4260229;28;20248;-71
2024/01/05 06:03:22;;;;;;;4.10;1.60;;;;;;;-2.85;79.74;99345.34;4258780;28;20307;-71
2024/01/05 06:05:49;;;;;;;3.13;1.40;;;;;;;-2.72;79.03;99344.50;4260963;28;20314;-70
2024/01/05 06:08:16;;;;;;;5.60;1.90;;;;;;;-2.78;79.40;99350.19;4264945;28;21867;-72
2024/01/05 06:10:43;;;;;;;6.10;1.80;;;;;;;-2.71;79.33;99355.97;4257783;28;20561;-66
2024/01/05 06:13:09;;;;;;;6.03;2.13;;;;;;;-2.69;79.36;99350.59;4258992;28;20240;-68
2024/01/05 06:15:36;;;;;;;2.73;1.60;;;;;;;-2.76;79.41;99352.75;4254637;28;20314;-68
2024/01/05 06:18:03;;;;;;;6.40;2.80;;;;;;;-2.67;79.77;99357.50;4272012;28;20238;-69
2024/01/05 06:20:30;;;;;;;7.00;2.37;;;;;;;-2.59;79.56;99367.66;4263667;28;21188;-72
2024/01/05 06:22:57;;;;;;;4.70;2.50;;;;;;;-2.72;80.16;99363.06;4258357;28;20562;-70
2024/01/05 06:25:23;;;;;;;8.53;3.20;;;;;;;-2.65;80.66;99371.50;4258829;28;20234;-70
2024/01/05 06:27:50;;;;;;;6.97;2.90;;;;;;;-2.64;81.02;99370.56;4264672;28;25155;-72
2024/01/05 06:30:16;;;;;;;8.97;2.73;;;;;;;-2.47;78.39;99363.44;4262522;28;21776;-72
2024/01/05 06:32:43;;;;;;;5.87;2.37;;;;;;;-2.50;78.72;99369.78;4253266;28;20230;-72
2024/01/05 06:35:11;;;;;;;6.03;2.07;;;;;;;-2.49;78.48;99387.34;4273721;28;20236;-73
2024/01/05 06:37:39;;;;;;;5.77;2.13;;;;;;;-2.65;78.64;99381.25;4264423;28;20244;-70
2024/01/05 06:40:06;;;;;;;7.23;2.23;;;;;;;-2.47;78.77;99387.28;4260706;28;20381;-69
2024/01/05 06:42:32;;;;;;;4.93;2.10;;;;;;;-2.63;78.78;99395.25;4261997;28;20233;-70
2024/01/05 06:44:59;;;;;;;4.27;1.87;;;;;;;-2.67;79.51;99389.28;4271701;28;20689;-70
2024/01/05 06:47:26;;;;;;;5.87;2.13;;;;;;;-2.64;78.43;99393.56;4262264;28;20825;-69
2024/01/05 06:49:53;;;;;;;4.40;2.00;;;;;;;-2.62;79.35;99395.19;4257371;28;20372;-70
2024/01/05 06:52:20;;;;;;;6.17;1.70;;;;;;;-2.62;78.47;99397.84;4266671;28;20308;-68
2024/01/05 06:54:47;;;;;;;3.60;2.00;;;;;;;-2.58;78.20;99402.00;4269633;28;20229;-71
2024/01/05 06:57:13;;;;;;;5.57;2.33;;;;;;;-2.67;79.39;99399.03;4267195;28;20238;-71
2024/01/05 06:59:40;;;;;;;7.93;2.43;;;;;;;-2.64;78.69;99405.00;4256107;28;21484;-69
2024/01/05 07:02:07;;;;;;;5.57;2.33;;;;;;;-2.67;79.38;99412.28;4257465;28;22300;-72
2024/01/05 07:04:33;;;;;;;4.03;2.17;;;;;;;-2.50;77.22;99416.59;4261198;28;20314;-72
2024/01/05 07:06:59;;;;;;;5.97;2.23;;;;;;;-2.60;76.79;99413.63;4265026;28;21743;-73
2024/01/05 07:09:26;;;;;;;3.33;2.00;;;;;;;-2.63;77.10;99413.81;4269447;28;20282;-73
2024/01/05 07:11:53;;;;;;;7.77;1.70;;;;;;;-2.57;76.26;99424.91;4253899;28;20286;-73
2024/01/05 07:14:20;;;;;;;4.23;1.80;;;;;;;-2.62;76.66;99426.97;4270631;28;20302;-72
2024/01/05 07:16:49;;;;;;;5.47;1.90;;;;;;;-2.71;77.25;99411.59;4257649;28;20225;-71
2024/01/05 07:19:16;;;;;;;6.77;2.10;;;;;;;-2.73;76.67;99413.47;4258151;28;20250;-73
2024/01/05 07:21:47;;;;;;;5.30;1.90;;;;;;;-2.56;75.13;99415.16;4263021;28;20237;-73
2024/01/05 07:24:18;;;;;;;6.00;2.00;;;;;;;-2.56;75.17;99405.44;4283888;28;20237;-73
2024/01/05 07:26:45;;;;;;;8.80;1.20;;;;;;;-2.39;75.73;99404.44;4267575;28;22900;-73
2024/01/05 07:29:12;;;;;;;0.77;0.50;;;;;;;-2.41;73.91;99402.81;4266138;28;20225;-74
2024/01/05 07:31:38;;;;;;;0.30;0.30;;;;;;;-2.44;74.52;99408.28;4263578;28;20354;-73
2024/01/05 07:34:05;;;;;;;6.53;1.90;;;;;;;-2.30;74.09;99403.03;4272695;28;23924;-74
2024/01/05 07:36:32;;;;;;;5.10;2.10;;;;;;;-2.55;76.05;99403.63;4260592;28;20233;-72
2024/01/05 07:38:59;;;;;;;6.33;2.00;;;;;;;-2.35;74.77;99406.91;4258214;28;21129;-73
2024/01/05 07:41:27;;;;;;;3.50;1.70;;;;;;;-2.43;74.79;99408.22;4258926;28;20229;-74
2024/01/05 07:43:54;;;;;;;4.70;1.90;;;;;;;-2.26;75.15;99419.59;4271865;28;20242;-73
2024/01/05 07:46:25;;;;;;;4.43;2.07;;;;;;;-2.33;75.58;99421.78;4283085;28;20311;-73
2024/01/05 07:48:52;;;;;;;3.73;1.87;;;;;;;-2.17;75.54;99426.16;4298794;28;20825;-73
2024/01/05 07:51:19;;;;;;;8.20;1.97;;;;;;;-2.50;76.59;99419.25;4265124;28;20245;-77
2024/01/05 07:53:48;;;;;;;4.60;1.70;;;;;;;-2.53;79.32;99422.09;4252879;28;20229;-70
2024/01/05 07:56:17;;;;;;;5.43;2.27;;;;;;;-2.52;78.25;99415.81;4276969;28;20323;-70
2024/01/05 07:58:44;;;;;;;7.87;2.50;;;;;;;-2.56;79.06;99421.31;4249364;28;20227;-69
2024/01/05 08:01:16;;;;;;;5.93;2.43;;;;;;;-2.46;78.09;99418.16;4271958;28;20361;-70
2024/01/05 08:03:44;;;;;;;9.53;2.20;;;;;;;-2.48;78.62;99426.16;4262254;28;20279;-70
2024/01/05 08:06:18;;;;;;;6.10;2.30;;;;;;;-2.37;77.83;99433.47;4273527;28;20337;-69
2024/01/05 08:08:52;;;;;;;4.70;1.93;;;;;;;-2.39;77.61;99430.09;4276511;28;20233;-73
2024/01/05 08:11:19;;;;;;;7.10;1.80;;;;;;;-2.37;78.08;99435.28;4288805;28;21063;-72
2024/01/05 08:13:46;;;;;;;3.97;2.27;;;;;;;-2.32;78.23;99436.75;4270909;28;20300;-70
2024/01/05 08:16:13;;;;;;;4.10;2.00;;;;;;;-2.59;78.85;99437.38;4257395;28;26326;-71
2024/01/05 08:18:41;;;;;;;0.10;0.10;;;;;;;-2.32;77.99;99447.34;4274874;28;20233;-70
2024/01/05 08:21:09;;;;;;;0.67;0.40;;;;;;;-2.42;78.73;99440.84;4279345;28;20237;-71
2024/01/05 08:23:36;;;;;;;0.33;0.33;;;;;;;-2.37;78.90;99444.09;4277751;28;21421;-70
2024/01/05 08:26:03;;;;;;;0.87;0.87;;;;;;;-2.26;77.57;99449.63;4262997;28;20244;-71
2024/01/05 08:28:30;;;;;;;0.10;0.10;;;;;;;-2.43;78.33;99458.56;4263458;28;20300;-68
2024/01/05 08:30:58;;;;;;;1.23;0.60;;;;;;;-2.56;78.12;99447.81;4268122;28;21110;-74
2024/01/05 08:33:25;;;;;;;1.03;0.37;;;;;;;-2.41;78.42;99454.00;4254101;28;22914;-71
2024/01/05 08:35:52;;;;;;;0.27;0.27;;;;;;;-2.38;76.86;99450.34;4263872;28;20233;-73
2024/01/05 08:38:19;;;;;;;0.83;0.30;;;;;;;-2.50;78.25;99445.75;4267776;28;20454;-72
2024/01/05 08:40:46;;;;;;;0.17;0.17;;;;;;;-2.41;78.59;99453.16;4245918;28;20233;-72
2024/01/05 08:43:12;;;;;;;0.47;0.20;;;;;;;-2.34;78.83;99453.69;4255203;28;20225;-73
2024/01/05 08:45:39;;;;;;;1.13;0.70;;;;;;;-2.32;77.42;99455.28;4251024;28;20665;-72
2024/01/05 08:48:06;;;;;;;0.10;0.10;;;;;;;-2.09;76.07;99469.84;4226702;28;22053;-72
2024/01/05 08:50:34;;;;;;;0.20;0.20;;;;;;;-2.12;75.32;99463.84;4266887;28;20476;-73
2024/01/05 08:53:01;;;;;;;1.00;0.57;;;;;;;-2.06;74.96;99479.41;4272362;28;20233;-74
2024/01/05 08:55:28;;;;;;;0.20;0.20;;;;;;;-2.11;74.85;99470.88;4258251;28;20245;-71
2024/01/05 08:57:55;;;;;;;0.10;0.10;;;;;;;-2.13;75.76;99478.06;4254157;28;20301;-71
2024/01/05 09:00:21;;;;;;;1.80;1.23;;;;;;;-2.30;77.15;99482.53;4266225;28;20310;-72
2024/01/05 09:02:48;;;;;;;0.30;0.30;;;;;;;-2.47;79.46;99480.03;4258815;28;21510;-71
2024/01/05 09:05:15;;;;;;;6.40;2.03;;;;;;;-2.54;80.85;99487.47;4264860;28;20235;-72
2024/01/05 09:07:42;;;;;;;0.63;0.63;;;;;;;-2.34;80.65;99482.84;4263208;28;20228;-71
2024/01/05 09:10:08;;;;;;;2.07;0.77;;;;;;;-2.53;81.73;99486.53;4264089;28;20244;-72
2024/01/05 09:12:37;;;;;;;3.20;0.60;;;;;;;-2.58;82.78;99492.09;4247768;28;20246;-72
2024/01/05 09:15:04;;;;;;;0.90;0.47;;;;;;;-2.59;83.06;99498.31;4266604;28;20269;-71
2024/01/05 09:17:31;;;;;;;1.50;0.87;;;;;;;-2.46;82.71;99493.19;4272397;28;20876;-73
2024/01/05 09:19:57;;;;;;;4.20;1.67;;;;;;;-2.53;82.53;99498.94;4261667;28;21741;-74
2024/01/05 09:22:24;;;;;;;0.13;0.13;;;;;;;-2.47;82.44;99503.88;4260769;28;20328;-73
2024/01/05 09:24:51;;;;;;;3.50;1.33;;;;;;;-2.61;83.52;99500.22;4257602;28;20726;-72
2024/01/05 09:27:17;;;;;;;0.10;0.10;;;;;;;-2.30;81.33;99503.75;4255202;28;20229;-71
2024/01/05 09:29:44;;;;;;;0.47;0.23;;;;;;;-2.31;81.64;99501.19;4258941;28;20443;-74
2024/01/05 09:32:11;;;;;;;1.20;0.43;;;;;;;-2.25;81.05;99508.78;4261931;28;22022;-72
2024/01/05 09:34:37;;;;;;;0.30;0.30;;;;;;;-2.36;80.87;99505.91;4259371;28;20260;-72
2024/01/05 09:37:04;;;;;;;0.10;0.10;;;;;;;-2.33;80.82;99505.72;4250848;28;20235;-72
2024/01/05 09:39:31;;;;;;;0.10;0.10;;;;;;;-2.25;79.51;99508.78;4263802;28;22479;-72
2024/01/05 09:41:58;;;;;;;0.10;0.10;;;;;;;-2.16;78.34;99504.78;4268579;28;20246;-71
2024/01/05 09:44:25;;;;;;;0.10;0.10;;;;;;;-2.15;78.20;99493.22;4251664;28;20313;-72
2024/01/05 09:46:53;;;;;;;0.10;0.10;;;;;;;-2.18;78.33;99493.41;4263067;28;20420;-71
2024/01/05 09:49:20;;;;;;;0.10;0.10;;;;;;;-1.88;78.06;99488.06;4257680;28;20245;-72
2024/01/05 09:51:47;;;;;;;0.10;0.10;;;;;;;-1.67;75.50;99483.28;4246124;28;21641;-71
2024/01/05 09:54:14;;;;;;;0.10;0.10;;;;;;;-1.69;70.59;99484.31;4233563;28;20244;-73
2024/01/05 09:56:46;;;;;;;0.00;0.00;;;;;;;-1.54;70.41;99490.47;4244525;28;20240;-71
2024/01/05 09:59:17;;;;;;;0.00;0.00;;;;;;;-1.35;69.98;99499.03;4263544;28;21759;-71
2024/01/05 10:01:48;;;;;;;0.10;0.10;;;;;;;-1.54;71.58;99498.44;4247776;28;20365;-72
2024/01/05 10:04:15;;;;;;;0.10;0.10;;;;;;;-1.33;70.74;99490.97;4261256;28;22774;-70
2024/01/05 10:06:42;;;;;;;0.10;0.10;;;;;;;-1.26;70.81;99494.94;4256769;28;20230;-71
2024/01/05 10:09:09;;;;;;;0.10;0.10;;;;;;;-1.69;71.82;99492.28;4263082;28;22500;-72
2024/01/05 10:11:44;;;;;;;0.07;0.07;;;;;;;-1.81;71.97;99496.53;4249044;28;20258;-69
2024/01/05 10:14:14;;;;;;;0.10;0.10;;;;;;;-1.50;72.95;99507.94;4263673;28;20229;-70
2024/01/05 10:16:40;;;;;;;0.20;0.20;;;;;;;-1.46;71.31;99512.97;4253439;28;20335;-69
2024/01/05 10:19:17;;;;;;;0.10;0.10;;;;;;;-1.24;70.31;99518.75;4263136;28;21284;-71
2024/01/05 10:21:47;;;;;;;0.10;0.10;;;;;;;-1.19;70.26;99524.63;4262637;28;20374;-70
2024/01/05 10:24:26;;;;;;;0.30;0.30;;;;;;;-1.42;71.06;99526.03;4257443;28;20476;-70
2024/01/05 10:27:04;;;;;;;0.10;0.10;;;;;;;-1.12;68.36;99529.47;4263782;28;20225;-69
2024/01/05 10:29:32;;;;;;;0.20;0.20;;;;;;;-1.17;68.24;99526.25;4264839;28;21799;-70
2024/01/05 10:32:11;;;;;;;0.10;0.10;;;;;;;-1.10;67.99;99533.84;4258292;28;20234;-69
2024/01/05 10:34:46;;;;;;;0.10;0.10;;;;;;;-1.22;67.75;99538.09;4254846;28;20233;-70
2024/01/05 10:37:17;;;;;;;0.10;0.10;;;;;;;-1.29;68.04;99543.78;4265844;28;20286;-69
2024/01/05 10:39:45;;;;;;;0.10;0.10;;;;;;;-1.46;69.97;99538.66;4257559;28;20229;-70
2024/01/05 10:42:26;;;;;;;0.07;0.07;;;;;;;-1.18;68.53;99542.28;4256552;28;20237;-69
2024/01/05 10:44:57;;;;;;;0.10;0.10;;;;;;;-1.24;67.54;99542.63;4268978;28;20304;-69
2024/01/05 10:47:25;;;;;;;0.10;0.10;;;;;;;-1.08;67.22;99548.72;4249407;28;20673;-69
2024/01/05 10:49:57;;;;;;;0.37;0.33;;;;;;;-1.20;66.15;99545.03;4237959;28;20641;-69
2024/01/05 10:52:30;;;;;;;0.10;0.10;;;;;;;-1.46;68.41;99538.66;4252538;28;20353;-66
2024/01/05 10:55:02;;;;;;;0.10;0.10;;;;;;;-1.30;69.04;99551.84;4247476;28;20227;-68
2024/01/05 10:57:30;;;;;;;0.10;0.10;;;;;;;-1.01;67.17;99552.69;4257975;28;20245;-68
2024/01/05 10:59:57;;;;;;;0.10;0.10;;;;;;;-1.00;66.70;99549.09;4252872;28;20234;-67
2024/01/05 11:02:38;;;;;;;0.60;0.60;;;;;;;-1.55;68.14;99542.72;4255785;28;20338;-69
2024/01/05 11:05:09;;;;;;;1.97;0.80;;;;;;;-1.78;68.39;99546.75;4244288;28;20241;-68
2024/01/05 11:07:38;;;;;;;0.10;0.10;;;;;;;-1.69;68.37;99535.56;4238407;28;25366;-68
2024/01/05 11:10:27;;;;;;;3.90;1.10;;;;;;;-1.70;68.45;99539.16;4252282;28;20254;-67
2024/01/05 11:13:15;;;;;;;0.10;0.10;;;;;;;-1.89;67.62;99533.25;4246988;28;21993;-60
2024/01/05 11:15:56;;;;;;;0.60;0.50;;;;;;;-1.88;66.58;99535.81;4245561;28;22466;-68
2024/01/05 11:18:51;;;;;;;0.20;0.20;;;;;;;-1.74;69.02;99526.19;4235146;28;20320;-64
2024/01/05 11:21:47;;;;;;;0.30;0.30;;;;;;;-1.55;64.90;99521.47;4254099;28;23228;-68
2024/01/05 11:24:15;;;;;;;0.10;0.10;;;;;;;-1.41;65.63;99533.06;4260738;28;20623;-68
2024/01/05 11:26:48;;;;;;;0.10;0.10;;;;;;;-1.45;63.77;99525.31;4239036;28;20278;-71
2024/01/05 11:29:50;;;;;;;0.10;0.10;;;;;;;-1.46;63.92;99536.88;4244585;28;20538;-69
2024/01/05 11:32:44;;;;;;;2.27;1.03;;;;;;;-1.37;64.26;99530.13;4265757;28;20289;-71
2024/01/05 11:35:17;;;;;;;0.10;0.10;;;;;;;-1.33;63.40;99536.97;4255134;28;20605;-71